createdAt,value
2018-09-11T00:01:52.629Z,7.62
2018-09-11T00:04:21.498Z,4.60
2018-09-11T00:06:50.406Z,8.05
2018-09-11T00:09:19.392Z,4.53
2018-09-11T00:11:48.305Z,5.85
2018-09-11T00:14:17.170Z,3.35
2018-09-11T00:16:46.062Z,4.10
2018-09-11T00:19:15.010Z,3.95
2018-09-11T00:21:43.870Z,3.67
2018-09-11T00:24:12.775Z,4.58
2018-09-11T00:26:41.686Z,4.50
2018-09-11T00:29:10.553Z,3.95
2018-09-11T00:31:39.501Z,4.62
2018-09-11T00:34:09.430Z,3.60
2018-09-11T00:36:38.364Z,3.15
2018-09-11T00:39:08.010Z,5.55
2018-09-11T00:41:36.891Z,3.60
2018-09-11T00:44:05.806Z,3.87
2018-09-11T00:46:34.705Z,4.45
2018-09-11T00:49:03.578Z,3.65
2018-09-11T00:51:32.909Z,12.40
2018-09-11T00:54:01.782Z,4.42
2018-09-11T00:56:30.654Z,4.03
2018-09-11T00:58:59.527Z,3.30
2018-09-11T01:01:28.412Z,4.40
2018-09-11T01:03:57.286Z,4.10
2018-09-11T01:06:26.196Z,3.35
2018-09-11T01:08:55.070Z,4.70
2018-09-11T01:11:23.990Z,4.75
2018-09-11T01:13:52.938Z,5.97
2018-09-11T01:16:21.881Z,5.25
2018-09-11T01:18:50.754Z,4.45
2018-09-11T01:21:19.646Z,3.92
2018-09-11T01:23:48.514Z,3.90
2018-09-11T01:26:17.417Z,6.35
2018-09-11T01:28:46.291Z,5.28
2018-09-11T01:31:15.173Z,6.37
2018-09-11T01:33:44.050Z,5.72
2018-09-11T01:36:12.979Z,4.37
2018-09-11T01:38:41.882Z,4.25
2018-09-11T01:41:10.761Z,4.70
2018-09-11T01:43:39.642Z,4.17
2018-09-11T01:46:08.571Z,4.05
2018-09-11T01:48:37.461Z,4.05
2018-09-11T01:51:06.746Z,4.10
2018-09-11T01:53:35.634Z,4.55
2018-09-11T01:56:04.546Z,4.05
2018-09-11T01:58:33.440Z,4.62
2018-09-11T02:01:02.333Z,3.52
2018-09-11T02:03:31.203Z,6.70
2018-09-11T02:06:00.086Z,4.30
2018-09-11T02:08:28.968Z,4.25
2018-09-11T02:10:57.846Z,4.20
2018-09-11T02:13:26.718Z,5.97
2018-09-11T02:15:55.618Z,4.50
2018-09-11T02:18:24.489Z,6.10
2018-09-11T02:20:53.390Z,4.30
2018-09-11T02:23:22.266Z,4.33
2018-09-11T02:25:51.149Z,5.30
2018-09-11T02:28:20.010Z,3.22
2018-09-11T02:30:48.942Z,6.28
2018-09-11T02:33:17.822Z,3.55
2018-09-11T02:35:46.762Z,6.10
2018-09-11T02:38:15.690Z,5.12
2018-09-11T02:40:44.638Z,5.35
2018-09-11T02:43:13.594Z,6.58
2018-09-11T02:45:42.486Z,4.90
2018-09-11T02:48:11.358Z,5.53
2018-09-11T02:50:40.242Z,3.70
2018-09-11T02:53:09.110Z,7.15
2018-09-11T02:55:38.003Z,4.95
2018-09-11T02:58:06.990Z,6.17
2018-09-11T03:00:35.875Z,4.97
2018-09-11T03:03:04.823Z,3.70
2018-09-11T03:05:33.714Z,4.87
2018-09-11T03:08:02.582Z,6.55
2018-09-11T03:10:31.466Z,3.33
2018-09-11T03:13:00.341Z,8.90
2018-09-11T03:15:29.216Z,5.08
2018-09-11T03:17:58.090Z,7.35
2018-09-11T03:20:27.041Z,6.45
2018-09-11T03:22:55.910Z,4.58
2018-09-11T03:25:24.821Z,8.25
2018-09-11T03:27:53.688Z,5.65
2018-09-11T03:30:22.640Z,5.62
2018-09-11T03:32:51.520Z,5.60
2018-09-11T03:35:20.417Z,6.25
2018-09-11T03:37:49.290Z,3.72
2018-09-11T03:40:18.206Z,5.30
2018-09-11T03:42:47.226Z,6.35
2018-09-11T03:45:16.146Z,4.75
2018-09-11T03:47:45.211Z,5.75
2018-09-11T03:50:14.099Z,4.60
2018-09-11T03:52:42.979Z,5.75
2018-09-11T03:55:11.903Z,4.58
2018-09-11T03:57:40.801Z,6.15
2018-09-11T04:00:09.701Z,3.92
2018-09-11T04:02:38.574Z,4.22
2018-09-11T04:05:07.442Z,5.90
2018-09-11T04:07:36.338Z,5.42
2018-09-11T04:10:05.423Z,4.15
2018-09-11T04:12:34.325Z,6.35
2018-09-11T04:15:03.341Z,6.40
2018-09-11T04:17:36.362Z,4.00
2018-09-11T04:20:05.777Z,6.78
2018-09-11T04:22:34.731Z,4.17
2018-09-11T04:25:03.696Z,4.60
2018-09-11T04:27:32.702Z,5.03
2018-09-11T04:30:01.568Z,6.85
2018-09-11T04:32:30.473Z,4.30
2018-09-11T04:34:59.335Z,5.33
2018-09-11T04:37:28.278Z,4.03
2018-09-11T04:39:57.154Z,4.35
2018-09-11T04:42:26.335Z,4.42
2018-09-11T04:44:55.235Z,6.65
2018-09-11T04:47:24.126Z,5.85
2018-09-11T04:49:53.037Z,4.45
2018-09-11T04:52:21.959Z,6.33
2018-09-11T04:54:50.838Z,6.95
2018-09-11T04:57:19.743Z,8.90
2018-09-11T04:59:48.715Z,8.03
2018-09-11T05:02:17.619Z,5.90
2018-09-11T05:04:46.707Z,7.78
2018-09-11T05:07:15.595Z,5.87
2018-09-11T05:09:44.492Z,4.55
2018-09-11T05:12:13.390Z,8.20
2018-09-11T05:14:42.286Z,5.10
2018-09-11T05:17:11.203Z,6.05
2018-09-11T05:19:40.070Z,5.65
2018-09-11T05:22:08.953Z,5.90
2018-09-11T05:24:37.821Z,8.33
2018-09-11T05:27:07.134Z,6.65
2018-09-11T05:29:36.014Z,9.30
2018-09-11T05:32:04.911Z,7.80
2018-09-11T05:34:33.770Z,14.63
2018-09-11T05:37:02.689Z,16.55
2018-09-11T05:39:31.547Z,8.60
2018-09-11T05:42:00.451Z,16.48
2018-09-11T05:44:29.318Z,13.65
2018-09-11T05:46:58.224Z,17.35
2018-09-11T05:49:27.101Z,11.90
2018-09-11T05:51:55.986Z,13.38
2018-09-11T05:54:24.942Z,7.30
2018-09-11T05:56:53.805Z,16.95
2018-09-11T05:59:22.709Z,9.30
2018-09-11T06:01:51.650Z,17.12
2018-09-11T06:04:20.526Z,23.35
2018-09-11T06:06:49.434Z,18.48
2018-09-11T06:09:18.322Z,8.38
2018-09-11T06:11:47.241Z,16.17
2018-09-11T06:14:16.110Z,16.20
2018-09-11T06:16:45.003Z,15.78
2018-09-11T06:19:13.890Z,17.00
2018-09-11T06:21:42.818Z,12.37
2018-09-11T06:24:11.681Z,11.93
2018-09-11T06:26:40.676Z,10.35
2018-09-11T06:29:09.672Z,10.58
2018-09-11T06:31:38.570Z,20.00
2018-09-11T06:34:07.598Z,8.08
2018-09-11T06:36:36.626Z,7.12
2018-09-11T06:39:07.450Z,9.30
2018-09-11T06:41:36.362Z,8.80
2018-09-11T06:44:05.247Z,11.30
2018-09-11T06:46:34.599Z,9.98
2018-09-11T06:49:04.003Z,11.83
2018-09-11T06:51:33.121Z,6.80
2018-09-11T06:54:02.110Z,6.70
2018-09-11T06:56:30.985Z,10.23
2018-09-11T06:58:59.904Z,7.22
2018-09-11T07:01:28.776Z,12.88
2018-09-11T07:03:57.661Z,8.98
2018-09-11T07:06:26.583Z,7.67
2018-09-11T07:08:55.647Z,6.17
2018-09-11T07:11:24.789Z,9.05
2018-09-11T07:13:53.678Z,8.23
2018-09-11T07:16:22.572Z,7.60
2018-09-11T07:18:51.470Z,9.20
2018-09-11T07:21:20.373Z,6.47
2018-09-11T07:23:49.259Z,6.00
2018-09-11T07:26:18.156Z,8.38
2018-09-11T07:28:47.050Z,10.58
2018-09-11T07:31:15.977Z,10.58
2018-09-11T07:33:45.002Z,10.10
2018-09-11T07:36:14.344Z,14.07
2018-09-11T07:38:43.231Z,11.75
2018-09-11T07:41:12.119Z,11.83
2018-09-11T07:43:41.002Z,7.10
2018-09-11T07:46:09.919Z,12.10
2018-09-11T07:48:38.798Z,6.92
2018-09-11T07:51:07.778Z,9.18
2018-09-11T07:53:36.670Z,6.97
2018-09-11T07:56:05.567Z,11.33
2018-09-11T07:58:34.435Z,5.70
2018-09-11T08:01:03.331Z,8.00
2018-09-11T08:03:32.194Z,9.40
2018-09-11T08:06:01.077Z,5.85
2018-09-11T08:08:30.010Z,6.15
2018-09-11T08:10:58.906Z,7.15
2018-09-11T08:13:27.775Z,7.25
2018-09-11T08:15:56.663Z,6.53
2018-09-11T08:18:25.578Z,6.10
2018-09-11T08:20:54.455Z,5.97
2018-09-11T08:23:23.339Z,5.40
2018-09-11T08:25:52.190Z,6.00
2018-09-11T08:28:21.067Z,6.93
2018-09-11T08:30:49.974Z,4.87
2018-09-11T08:33:18.891Z,5.43
2018-09-11T08:35:47.770Z,5.90
2018-09-11T08:38:16.670Z,7.00
2018-09-11T08:40:45.562Z,7.13
2018-09-11T08:43:14.446Z,11.07
2018-09-11T08:45:43.326Z,7.60
2018-09-11T08:48:12.228Z,7.50
2018-09-11T08:50:41.102Z,5.27
2018-09-11T08:53:10.003Z,5.30
2018-09-11T08:55:38.879Z,4.47
2018-09-11T08:58:07.761Z,4.90
2018-09-11T09:00:36.639Z,5.53
2018-09-11T09:03:05.770Z,11.17
2018-09-11T09:05:34.641Z,4.27
2018-09-11T09:08:03.534Z,3.63
2018-09-11T09:10:32.397Z,2.80
2018-09-11T09:13:01.283Z,4.43
2018-09-11T09:15:30.171Z,3.23
2018-09-11T09:17:59.054Z,2.27
2018-09-11T09:20:27.910Z,4.70
2018-09-11T09:22:56.794Z,2.50
2018-09-11T09:25:25.654Z,5.03
2018-09-11T09:27:54.534Z,6.30
2018-09-11T09:30:23.403Z,3.37
2018-09-11T09:32:52.282Z,3.30
2018-09-11T09:35:21.133Z,7.03
2018-09-11T09:37:50.005Z,5.50
2018-09-11T09:40:18.916Z,3.50
2018-09-11T09:42:47.928Z,3.23
2018-09-11T09:45:16.851Z,4.10
2018-09-11T09:47:45.791Z,3.23
2018-09-11T09:50:14.706Z,3.67
2018-09-11T09:52:43.602Z,5.70
2018-09-11T09:55:15.578Z,3.70
2018-09-11T09:57:44.462Z,4.93
2018-09-11T10:00:17.798Z,2.80
2018-09-11T10:02:46.678Z,3.60
2018-09-11T10:05:15.572Z,5.80
2018-09-11T10:07:44.459Z,4.50
2018-09-11T10:10:13.354Z,4.33
2018-09-11T10:12:42.291Z,5.83
2018-09-11T10:15:12.046Z,3.27
2018-09-11T10:17:41.029Z,2.67
2018-09-11T10:20:09.854Z,2.63
2018-09-11T10:22:38.726Z,2.47
2018-09-11T10:25:07.659Z,5.27
2018-09-11T10:27:36.603Z,5.23
2018-09-11T10:30:05.582Z,4.50
2018-09-11T10:32:34.450Z,5.03
2018-09-11T10:35:03.362Z,3.00
2018-09-11T10:37:32.235Z,2.93
2018-09-11T10:40:01.122Z,9.00
2018-09-11T10:42:30.051Z,6.73
2018-09-11T10:44:58.971Z,4.17
2018-09-11T10:47:27.991Z,4.27
2018-09-11T10:49:56.886Z,5.57
2018-09-11T10:52:25.754Z,2.50
2018-09-11T10:54:54.634Z,2.73
2018-09-11T10:57:23.505Z,4.13
2018-09-11T10:59:52.410Z,5.17
2018-09-11T11:02:21.283Z,4.33
2018-09-11T11:04:50.162Z,5.50
2018-09-11T11:07:19.063Z,3.10
2018-09-11T11:09:47.940Z,2.37
2018-09-11T11:12:16.862Z,6.30
2018-09-11T11:14:45.858Z,2.50
2018-09-11T11:17:14.754Z,3.77
2018-09-11T11:19:43.656Z,2.00
2018-09-11T11:22:12.542Z,2.87
2018-09-11T11:24:41.423Z,3.33
2018-09-11T11:27:10.386Z,4.10
2018-09-11T11:29:39.175Z,1.63
2018-09-11T11:32:08.058Z,1.53
2018-09-11T11:34:36.944Z,2.17
2018-09-11T11:37:05.982Z,5.30
2018-09-11T11:39:34.718Z,2.43
2018-09-11T11:42:03.618Z,2.80
2018-09-11T11:44:32.502Z,1.50
2018-09-11T11:47:01.388Z,4.80
2018-09-11T11:49:30.271Z,2.40
2018-09-11T11:51:59.143Z,1.57
2018-09-11T11:54:28.031Z,3.20
2018-09-11T11:56:56.963Z,3.40
2018-09-11T11:59:25.839Z,2.30
2018-09-11T12:01:54.721Z,3.23
2018-09-11T12:04:23.726Z,3.07
2018-09-11T12:09:27.711Z,1.73
2018-09-11T12:11:56.633Z,2.40
2018-09-11T12:14:25.513Z,1.90
2018-09-11T12:16:54.670Z,3.00
2018-09-11T12:19:23.587Z,2.73
2018-09-11T12:21:52.453Z,2.30
2018-09-11T12:24:21.339Z,3.70
2018-09-11T12:26:50.281Z,1.33
2018-09-11T12:29:19.114Z,2.87
2018-09-11T12:31:47.994Z,1.93
2018-09-11T12:34:16.866Z,2.47
2018-09-11T12:36:45.766Z,3.17
2018-09-11T12:39:14.710Z,3.70
2018-09-11T12:41:43.626Z,1.87
2018-09-11T12:44:12.535Z,2.33
2018-09-11T12:46:41.844Z,3.83
2018-09-11T12:49:10.299Z,2.43
2018-09-11T12:51:39.204Z,2.60
2018-09-11T12:54:08.338Z,2.17
2018-09-11T12:56:37.228Z,4.33
2018-09-11T12:59:06.103Z,2.33
2018-09-11T13:01:34.982Z,2.57
2018-09-11T13:04:03.886Z,2.20
2018-09-11T13:06:32.765Z,4.60
2018-09-11T13:09:01.642Z,2.83
2018-09-11T13:11:30.527Z,2.00
2018-09-11T13:13:59.401Z,3.63
2018-09-11T13:16:28.294Z,3.07
2018-09-11T13:18:57.162Z,2.43
2018-09-11T13:21:26.046Z,3.27
2018-09-11T13:23:54.915Z,2.37
2018-09-11T13:26:23.794Z,1.93
2018-09-11T13:28:52.749Z,8.00
2018-09-11T13:31:21.646Z,2.30
2018-09-11T13:33:50.548Z,3.37
2018-09-11T13:36:19.379Z,4.03
2018-09-11T13:38:48.298Z,3.83
2018-09-11T13:41:17.211Z,2.20
2018-09-11T13:43:46.095Z,2.53
2018-09-11T13:46:15.026Z,4.00
2018-09-11T13:48:43.930Z,3.73
2018-09-11T13:51:12.864Z,6.40
2018-09-11T13:53:41.726Z,2.17
2018-09-11T13:56:10.611Z,2.20
2018-09-11T13:58:39.594Z,3.40
2018-09-11T14:01:08.607Z,3.57
2018-09-11T14:03:37.472Z,5.23
2018-09-11T14:06:06.383Z,2.40
2018-09-11T14:08:35.345Z,3.30
2018-09-11T14:11:04.209Z,2.03
2018-09-11T14:13:33.117Z,3.50
2018-09-11T14:16:02.002Z,7.73
2018-09-11T14:18:30.852Z,3.13
2018-09-11T14:20:59.810Z,2.23
2018-09-11T14:23:28.685Z,4.77
2018-09-11T14:26:00.547Z,4.80
2018-09-11T14:28:29.418Z,2.47
2018-09-11T14:30:58.288Z,3.27
2018-09-11T14:33:27.154Z,3.10
2018-09-11T14:35:56.028Z,4.20
2018-09-11T14:38:24.886Z,3.03
2018-09-11T14:40:53.782Z,3.73
2018-09-11T14:43:22.772Z,3.10
2018-09-11T14:45:51.654Z,2.53
2018-09-11T14:48:20.546Z,3.23
2018-09-11T14:50:49.433Z,4.10
2018-09-11T14:53:18.334Z,2.03
2018-09-11T14:55:47.276Z,2.70
2018-09-11T14:58:22.854Z,3.53
2018-09-11T15:00:51.740Z,2.50
2018-09-11T15:03:20.603Z,5.20
2018-09-11T15:05:49.490Z,2.27
2018-09-11T15:08:18.410Z,2.93
2018-09-11T15:10:47.326Z,4.57
2018-09-11T15:13:16.191Z,2.33
2018-09-11T15:15:45.097Z,3.10
2018-09-11T15:18:13.992Z,3.87
2018-09-11T15:20:42.991Z,3.63
2018-09-11T15:23:11.862Z,4.40
2018-09-11T15:25:40.746Z,2.23
2018-09-11T15:28:09.754Z,4.20
2018-09-11T15:30:38.641Z,4.27
2018-09-11T15:33:07.911Z,3.00
2018-09-11T15:35:36.802Z,2.97
2018-09-11T15:38:05.663Z,2.67
2018-09-11T15:40:34.552Z,14.20
2018-09-11T15:43:03.563Z,2.43
2018-09-11T15:45:32.454Z,6.80
2018-09-11T15:48:01.327Z,2.93
2018-09-11T15:50:30.222Z,2.60
2018-09-11T15:52:59.082Z,3.50
2018-09-11T15:55:27.979Z,2.20
2018-09-11T15:57:56.848Z,2.70
2018-09-11T16:00:25.736Z,1.67
2018-09-11T16:02:54.594Z,3.57
2018-09-11T16:05:23.481Z,3.03
2018-09-11T16:07:52.345Z,2.17
2018-09-11T16:10:21.386Z,4.83
2018-09-11T16:12:50.246Z,3.17
2018-09-11T16:15:19.158Z,2.00
2018-09-11T16:17:48.047Z,3.30
2018-09-11T16:20:16.941Z,1.77
2018-09-11T16:22:45.833Z,1.80
2018-09-11T16:25:14.775Z,1.30
2018-09-11T16:27:43.798Z,3.17
2018-09-11T16:30:12.882Z,2.00
2018-09-11T16:32:41.823Z,2.90
2018-09-11T16:35:10.694Z,2.37
2018-09-11T16:37:39.554Z,3.33
2018-09-11T16:40:08.513Z,3.20
2018-09-11T16:42:37.421Z,2.80
2018-09-11T16:45:06.778Z,2.83
2018-09-11T16:47:35.638Z,2.63
2018-09-11T16:50:04.586Z,3.13
2018-09-11T16:52:33.450Z,5.27
2018-09-11T16:55:02.347Z,2.90
2018-09-11T16:57:31.562Z,5.73
2018-09-11T17:00:00.435Z,3.80
2018-09-11T17:02:29.326Z,3.47
2018-09-11T17:04:58.190Z,4.93
2018-09-11T17:07:27.055Z,3.10
2018-09-11T17:09:55.955Z,2.33
2018-09-11T17:12:24.839Z,2.50
2018-09-11T17:14:53.801Z,2.07
2018-09-11T17:17:22.563Z,3.77
2018-09-11T17:19:51.593Z,3.77
2018-09-11T17:22:20.430Z,3.43
2018-09-11T17:24:49.330Z,2.67
2018-09-11T17:27:18.274Z,2.80
2018-09-11T17:29:47.099Z,3.30
2018-09-11T17:32:15.978Z,3.33
2018-09-11T17:34:44.882Z,3.13
2018-09-11T17:37:13.775Z,4.00
2018-09-11T17:39:42.637Z,2.70
2018-09-11T17:42:11.554Z,3.63
2018-09-11T17:44:40.479Z,3.90
2018-09-11T17:47:09.375Z,4.60
2018-09-11T17:49:38.279Z,4.33
2018-09-11T17:52:07.162Z,3.07
2018-09-11T17:54:36.040Z,3.27
2018-09-11T17:57:04.934Z,2.80
2018-09-11T17:59:33.810Z,6.73
2018-09-11T18:02:02.807Z,3.00
2018-09-11T18:04:31.669Z,6.73
2018-09-11T18:07:00.558Z,3.30
2018-09-11T18:09:29.417Z,5.00
2018-09-11T18:11:58.331Z,6.27
2018-09-11T18:14:27.202Z,5.23
2018-09-11T18:16:56.080Z,5.00
2018-09-11T18:19:24.941Z,6.30
2018-09-11T18:21:53.822Z,5.27
2018-09-11T18:24:22.735Z,2.87
2018-09-11T18:26:51.605Z,5.20
2018-09-11T18:29:20.478Z,8.93
2018-09-11T18:31:49.371Z,5.10
2018-09-11T18:34:18.302Z,5.07
2018-09-11T18:36:47.270Z,6.13
2018-09-11T18:39:16.099Z,4.93
2018-09-11T18:41:45.006Z,5.40
2018-09-11T18:44:13.898Z,3.60
2018-09-11T18:46:42.837Z,4.40
2018-09-11T18:49:11.723Z,2.50
2018-09-11T18:51:40.659Z,3.97
2018-09-11T18:54:09.578Z,3.37
2018-09-11T18:56:38.462Z,3.77
2018-09-11T18:59:07.359Z,3.03
2018-09-11T19:01:36.235Z,3.90
2018-09-11T19:04:05.118Z,3.70
2018-09-11T19:06:34.010Z,3.50
2018-09-11T19:09:02.923Z,4.05
2018-09-11T19:11:31.815Z,3.37
2018-09-11T19:14:00.719Z,4.58
2018-09-11T19:16:29.677Z,3.58
2018-09-11T19:18:58.489Z,10.80
2018-09-11T19:21:27.386Z,4.43
2018-09-11T19:23:56.267Z,11.15
2018-09-11T19:26:25.162Z,5.95
2018-09-11T19:28:54.062Z,3.60
2018-09-11T19:31:24.886Z,4.80
2018-09-11T19:33:53.786Z,6.62
2018-09-11T19:36:22.767Z,3.72
2018-09-11T19:38:51.658Z,6.20
2018-09-11T19:41:20.579Z,5.35
2018-09-11T19:43:49.452Z,7.37
2018-09-11T19:46:18.370Z,6.30
2018-09-11T19:48:47.439Z,3.30
2018-09-11T19:51:16.491Z,2.83
2018-09-11T19:53:45.399Z,4.40
2018-09-11T19:56:14.290Z,3.92
2018-09-11T19:58:43.190Z,5.20
2018-09-11T20:01:12.095Z,4.83
2018-09-11T20:03:47.586Z,3.20
2018-09-11T20:06:16.495Z,3.75
2018-09-11T20:08:45.402Z,3.37
2018-09-11T20:11:14.386Z,4.33
2018-09-11T20:13:43.279Z,4.08
2018-09-11T20:16:12.204Z,3.72
2018-09-11T20:18:41.131Z,4.50
2018-09-11T20:21:09.999Z,2.50
2018-09-11T20:23:38.946Z,2.98
2018-09-11T20:26:07.846Z,8.93
2018-09-11T20:28:36.722Z,2.67
2018-09-11T20:31:05.861Z,3.62
2018-09-11T20:33:34.756Z,3.05
2018-09-11T20:36:03.675Z,5.22
2018-09-11T20:38:32.570Z,4.45
2018-09-11T20:41:01.482Z,3.72
2018-09-11T20:43:30.373Z,4.00
2018-09-11T20:45:59.262Z,3.65
2018-09-11T20:48:28.132Z,4.35
2018-09-11T20:50:57.019Z,7.35
2018-09-11T20:53:25.916Z,5.08
2018-09-11T20:55:55.031Z,2.60
2018-09-11T20:58:28.143Z,3.17
2018-09-11T21:00:57.187Z,3.25
2018-09-11T21:03:26.166Z,4.10
2018-09-11T21:05:55.074Z,3.42
2018-09-11T21:08:23.978Z,3.75
2018-09-11T21:10:52.978Z,3.17
2018-09-11T21:13:21.847Z,3.25
2018-09-11T21:15:50.742Z,4.17
2018-09-11T21:18:19.621Z,3.60
2018-09-11T21:20:48.517Z,4.60
2018-09-11T21:23:17.583Z,5.50
2018-09-11T21:25:46.503Z,3.72
2018-09-11T21:28:15.419Z,2.60
2018-09-11T21:30:44.366Z,3.40
2018-09-11T21:33:13.259Z,3.25
2018-09-11T21:35:42.153Z,3.05
2018-09-11T21:38:11.046Z,4.10
2018-09-11T21:40:39.942Z,4.08
2018-09-11T21:43:08.804Z,4.53
2018-09-11T21:45:38.729Z,8.53
2018-09-11T21:48:07.614Z,3.20
2018-09-11T21:50:36.506Z,7.35
2018-09-11T21:53:05.422Z,4.08
2018-09-11T21:55:34.306Z,6.33
2018-09-11T21:58:03.214Z,3.67
2018-09-11T22:00:32.123Z,3.90
2018-09-11T22:03:04.011Z,6.75
2018-09-11T22:05:32.964Z,3.10
2018-09-11T22:08:01.822Z,4.30
2018-09-11T22:10:30.737Z,3.15
2018-09-11T22:12:59.658Z,5.15
2018-09-11T22:15:28.522Z,3.05
2018-09-11T22:17:57.406Z,3.22
2018-09-11T22:20:26.290Z,3.72
2018-09-11T22:22:55.170Z,4.65
2018-09-11T22:25:24.050Z,5.10
2018-09-11T22:27:52.942Z,4.60
2018-09-11T22:30:21.802Z,3.00
2018-09-11T22:32:50.682Z,4.08
2018-09-11T22:35:19.595Z,3.52
2018-09-11T22:37:48.466Z,3.50
2018-09-11T22:40:17.522Z,4.03
2018-09-11T22:42:46.455Z,5.22
2018-09-11T22:45:15.518Z,3.75
2018-09-11T22:47:44.415Z,4.85
2018-09-11T22:50:13.482Z,3.55
2018-09-11T22:52:42.474Z,3.22
2018-09-11T22:55:11.366Z,5.85
2018-09-11T22:57:40.294Z,6.08
2018-09-11T23:00:09.263Z,3.35
2018-09-11T23:02:38.252Z,4.85
2018-09-11T23:05:07.146Z,3.95
2018-09-11T23:07:36.070Z,4.62
2018-09-11T23:10:05.218Z,9.78
2018-09-11T23:12:34.193Z,3.87
2018-09-11T23:15:03.085Z,3.37
2018-09-11T23:17:31.984Z,3.10
2018-09-11T23:20:00.872Z,3.47
2018-09-11T23:22:29.757Z,3.92
2018-09-11T23:24:58.630Z,2.72
2018-09-11T23:27:27.546Z,3.72
2018-09-11T23:29:56.434Z,5.37
2018-09-11T23:32:25.542Z,4.65
2018-09-11T23:34:54.422Z,3.60
2018-09-11T23:37:23.306Z,4.70
2018-09-11T23:39:52.199Z,3.85
2018-09-11T23:42:21.075Z,3.42
2018-09-11T23:44:49.965Z,5.72
2018-09-11T23:47:18.974Z,4.83
2018-09-11T23:49:47.891Z,3.35
2018-09-11T23:52:16.787Z,3.87
2018-09-11T23:54:45.676Z,3.22
2018-09-11T23:57:14.591Z,4.33
2018-09-11T23:59:43.678Z,4.10
